createdAt,value
2017-09-14T00:02:13.682Z,74.22
2017-09-14T00:04:41.995Z,74.50
2017-09-14T00:07:11.083Z,74.44
2017-09-14T00:09:40.171Z,74.37
2017-09-14T00:12:08.469Z,74.33
2017-09-14T00:14:36.822Z,74.58
2017-09-14T00:17:05.131Z,74.87
2017-09-14T00:19:33.437Z,75.36
2017-09-14T00:22:01.754Z,75.57
2017-09-14T00:24:30.055Z,75.53
2017-09-14T00:26:59.126Z,75.67
2017-09-14T00:29:27.434Z,76.10
2017-09-14T00:31:55.743Z,76.70
2017-09-14T00:34:24.052Z,76.68
2017-09-14T00:36:52.384Z,76.60
2017-09-14T00:39:20.686Z,76.83
2017-09-14T00:41:48.999Z,77.06
2017-09-14T00:44:18.083Z,77.09
2017-09-14T00:46:46.409Z,77.36
2017-09-14T00:49:14.718Z,77.57
2017-09-14T00:51:43.036Z,77.80
2017-09-14T00:54:12.124Z,78.31
2017-09-14T00:56:41.195Z,78.86
2017-09-14T00:59:09.538Z,78.93
2017-09-14T01:01:37.838Z,79.24
2017-09-14T01:04:06.154Z,79.05
2017-09-14T01:06:35.251Z,79.14
2017-09-14T01:09:04.347Z,79.22
2017-09-14T01:11:33.425Z,79.31
2017-09-14T01:14:25.157Z,79.38
2017-09-14T01:16:54.243Z,79.51
2017-09-14T01:19:22.546Z,79.48
2017-09-14T01:21:50.870Z,79.32
2017-09-14T01:24:19.194Z,78.66
2017-09-14T01:26:48.279Z,78.38
2017-09-14T01:29:40.022Z,78.02
2017-09-14T01:32:09.114Z,77.73
2017-09-14T01:34:38.189Z,77.55
2017-09-14T01:37:06.543Z,77.33
2017-09-14T01:39:34.848Z,77.62
2017-09-14T01:42:03.938Z,77.81
2017-09-14T01:44:32.273Z,77.77
2017-09-14T01:47:00.574Z,77.71
2017-09-14T01:49:31.765Z,77.85
2017-09-14T01:52:00.825Z,78.21
2017-09-14T01:54:29.148Z,78.30
2017-09-14T01:56:57.450Z,78.59
2017-09-14T01:59:25.758Z,79.09
2017-09-14T02:01:54.060Z,79.17
2017-09-14T02:04:23.179Z,79.17
2017-09-14T02:06:51.484Z,79.49
2017-09-14T02:09:19.781Z,79.42
2017-09-14T02:11:48.418Z,79.37
2017-09-14T02:14:16.734Z,79.33
2017-09-14T02:16:45.047Z,79.33
2017-09-14T02:19:14.121Z,79.38
2017-09-14T02:21:42.434Z,79.46
2017-09-14T02:24:10.731Z,79.57
2017-09-14T02:26:39.046Z,79.79
2017-09-14T02:29:07.341Z,79.71
2017-09-14T02:31:35.683Z,79.62
2017-09-14T02:34:04.036Z,79.71
2017-09-14T02:36:32.337Z,79.44
2017-09-14T02:39:00.642Z,79.37
2017-09-14T02:41:28.950Z,79.12
2017-09-14T02:43:57.257Z,79.37
2017-09-14T02:46:25.555Z,79.26
2017-09-14T02:48:53.863Z,79.36
2017-09-14T02:51:22.929Z,79.75
2017-09-14T02:53:51.250Z,79.66
2017-09-14T02:56:20.321Z,80.07
2017-09-14T02:58:48.654Z,80.42
2017-09-14T03:01:16.961Z,81.66
2017-09-14T03:03:45.328Z,83.62
2017-09-14T03:06:13.667Z,85.93
2017-09-14T03:08:41.978Z,86.49
2017-09-14T03:11:10.285Z,86.78
2017-09-14T03:13:38.583Z,87.72
2017-09-14T03:16:07.673Z,88.33
2017-09-14T03:18:36.737Z,87.67
2017-09-14T03:21:05.063Z,87.21
2017-09-14T03:23:33.362Z,87.56
2017-09-14T03:26:01.707Z,86.67
2017-09-14T03:28:30.778Z,87.00
2017-09-14T03:30:59.099Z,86.56
2017-09-14T03:33:27.417Z,86.62
2017-09-14T03:35:55.730Z,86.92
2017-09-14T03:38:24.828Z,86.68
2017-09-14T03:40:53.885Z,87.23
2017-09-14T03:43:22.193Z,87.41
2017-09-14T03:45:51.254Z,86.84
2017-09-14T03:48:19.581Z,86.63
2017-09-14T03:50:47.878Z,87.43
2017-09-14T03:53:16.174Z,87.47
2017-09-14T03:55:44.474Z,87.64
2017-09-14T03:58:12.779Z,86.56
2017-09-14T04:00:41.868Z,85.68
2017-09-14T04:03:10.943Z,85.62
2017-09-14T04:05:39.245Z,84.91
2017-09-14T04:08:08.298Z,85.55
2017-09-14T04:10:36.640Z,84.84
2017-09-14T04:13:04.934Z,84.45
2017-09-14T04:15:33.230Z,84.75
2017-09-14T04:18:01.546Z,84.94
2017-09-14T04:20:30.612Z,85.72
2017-09-14T04:22:58.934Z,85.94
2017-09-14T04:25:27.229Z,86.09
2017-09-14T04:27:55.547Z,86.15
2017-09-14T04:30:23.838Z,86.39
2017-09-14T04:32:52.166Z,86.68
2017-09-14T04:35:20.466Z,86.28
2017-09-14T04:37:49.533Z,86.14
2017-09-14T04:40:17.838Z,86.36
2017-09-14T04:42:46.137Z,86.42
2017-09-14T04:45:14.450Z,86.68
2017-09-14T04:47:42.746Z,86.73
2017-09-14T04:50:11.119Z,86.61
2017-09-14T04:52:39.423Z,86.33
2017-09-14T04:55:07.758Z,86.38
2017-09-14T04:57:36.057Z,86.21
2017-09-14T05:00:04.363Z,86.04
2017-09-14T05:02:32.682Z,86.01
2017-09-14T05:05:00.976Z,86.28
2017-09-14T05:07:29.281Z,85.95
2017-09-14T05:09:57.569Z,86.01
2017-09-14T05:12:25.913Z,85.89
2017-09-14T05:14:54.205Z,86.27
2017-09-14T05:17:22.534Z,85.23
2017-09-14T05:19:51.596Z,85.41
2017-09-14T05:22:19.904Z,85.10
2017-09-14T05:24:48.988Z,84.38
2017-09-14T05:27:17.288Z,83.83
2017-09-14T05:29:46.355Z,83.18
2017-09-14T05:32:14.655Z,82.07
2017-09-14T05:34:43.734Z,82.04
2017-09-14T05:37:12.814Z,81.60
2017-09-14T05:39:41.141Z,80.93
2017-09-14T05:42:09.446Z,81.05
2017-09-14T05:44:37.767Z,81.28
2017-09-14T05:47:06.846Z,81.10
2017-09-14T05:49:35.138Z,79.85
2017-09-14T05:52:04.209Z,78.31
2017-09-14T05:54:32.509Z,77.62
2017-09-14T05:57:01.590Z,77.93
2017-09-14T05:59:29.889Z,77.66
2017-09-14T06:01:58.986Z,77.82
2017-09-14T06:04:28.053Z,77.23
2017-09-14T06:06:56.350Z,77.11
2017-09-14T06:09:25.421Z,76.89
2017-09-14T06:11:53.717Z,75.98
2017-09-14T06:14:22.021Z,76.43
2017-09-14T06:16:50.313Z,75.29
2017-09-14T06:19:18.610Z,76.22
2017-09-14T06:21:46.907Z,74.77
2017-09-14T06:24:15.239Z,74.37
2017-09-14T06:26:43.558Z,74.46
2017-09-14T06:29:11.855Z,73.92
2017-09-14T06:31:40.162Z,74.63
2017-09-14T06:34:08.453Z,73.97
2017-09-14T06:36:36.837Z,74.48
2017-09-14T06:39:05.167Z,74.10
2017-09-14T06:41:34.246Z,74.22
2017-09-14T06:44:02.543Z,73.36
2017-09-14T06:46:31.646Z,74.01
2017-09-14T06:49:00.716Z,72.42
2017-09-14T06:51:29.017Z,72.79
2017-09-14T06:53:58.096Z,72.74
2017-09-14T06:56:26.393Z,72.99
2017-09-14T06:58:55.465Z,74.19
2017-09-14T07:01:23.766Z,72.78
2017-09-14T07:03:52.857Z,73.21
2017-09-14T07:06:21.927Z,73.16
2017-09-14T07:08:50.228Z,73.24
2017-09-14T07:11:19.303Z,73.26
2017-09-14T07:13:47.599Z,73.06
2017-09-14T07:16:16.676Z,72.31
2017-09-14T07:18:44.974Z,71.90
2017-09-14T07:21:14.049Z,71.56
2017-09-14T07:23:42.343Z,70.98
2017-09-14T07:26:11.447Z,71.26
2017-09-14T07:28:40.506Z,71.64
2017-09-14T07:31:08.807Z,71.97
2017-09-14T07:33:37.883Z,72.08
2017-09-14T07:36:06.193Z,72.96
2017-09-14T07:38:34.501Z,72.29
2017-09-14T07:41:02.802Z,71.95
2017-09-14T07:43:31.109Z,72.19
2017-09-14T07:46:00.170Z,71.79
2017-09-14T07:48:28.525Z,71.53
2017-09-14T07:50:56.829Z,71.44
2017-09-14T07:53:25.141Z,70.90
2017-09-14T07:55:54.242Z,70.95
2017-09-14T07:58:23.305Z,70.04
2017-09-14T08:00:51.605Z,70.13
2017-09-14T08:03:20.678Z,69.56
2017-09-14T08:05:48.982Z,69.32
2017-09-14T08:08:18.050Z,69.68
2017-09-14T08:10:46.395Z,69.38
2017-09-14T08:13:14.709Z,69.55
2017-09-14T08:15:43.003Z,69.63
2017-09-14T08:18:12.071Z,68.50
2017-09-14T08:20:40.361Z,68.75
2017-09-14T08:23:08.666Z,68.32
2017-09-14T08:25:37.003Z,69.02
2017-09-14T08:28:05.320Z,69.36
2017-09-14T08:30:34.378Z,68.87
2017-09-14T08:33:02.674Z,67.59
2017-09-14T08:35:31.763Z,67.95
2017-09-14T08:38:00.067Z,67.30
2017-09-14T08:40:28.365Z,67.84
2017-09-14T08:42:56.669Z,67.97
2017-09-14T08:45:25.006Z,67.99
2017-09-14T08:47:53.311Z,68.40
2017-09-14T08:50:21.611Z,67.41
2017-09-14T08:52:49.917Z,67.20
2017-09-14T08:55:18.982Z,67.05
2017-09-14T08:57:47.299Z,67.50
2017-09-14T09:00:15.600Z,66.68
2017-09-14T09:02:43.946Z,67.75
2017-09-14T09:05:13.014Z,68.84
2017-09-14T09:07:41.311Z,69.41
2017-09-14T09:10:10.391Z,68.07
2017-09-14T09:12:38.739Z,68.23
2017-09-14T09:15:07.041Z,68.01
2017-09-14T09:17:35.561Z,68.50
2017-09-14T09:20:03.899Z,69.10
2017-09-14T09:22:32.201Z,69.74
2017-09-14T09:25:01.275Z,68.82
2017-09-14T09:27:29.595Z,68.16
2017-09-14T09:29:57.894Z,67.22
2017-09-14T09:32:26.194Z,66.79
2017-09-14T09:34:54.489Z,66.64
2017-09-14T09:37:22.789Z,66.85
2017-09-14T09:39:51.866Z,67.87
2017-09-14T09:42:20.170Z,67.79
2017-09-14T09:44:48.487Z,68.64
2017-09-14T09:47:16.790Z,68.12
2017-09-14T09:49:45.085Z,67.32
2017-09-14T09:52:14.154Z,66.59
2017-09-14T09:54:42.450Z,66.37
2017-09-14T09:57:11.546Z,64.61
2017-09-14T09:59:40.622Z,62.76
2017-09-14T10:02:10.006Z,61.61
2017-09-14T10:04:38.330Z,60.27
2017-09-14T10:07:07.395Z,59.94
2017-09-14T10:09:35.724Z,58.96
2017-09-14T10:12:04.023Z,58.62
2017-09-14T10:14:32.326Z,57.84
2017-09-14T10:17:00.634Z,58.14
2017-09-14T10:19:29.694Z,58.92
2017-09-14T10:21:58.039Z,58.53
2017-09-14T10:24:26.349Z,60.20
2017-09-14T10:26:54.659Z,60.47
2017-09-14T10:29:22.985Z,61.36
2017-09-14T10:31:51.281Z,61.72
2017-09-14T10:34:19.611Z,61.88
2017-09-14T10:36:47.913Z,62.04
2017-09-14T10:39:16.236Z,61.42
2017-09-14T10:41:45.319Z,60.67
2017-09-14T10:44:13.619Z,59.41
2017-09-14T10:46:42.727Z,56.86
2017-09-14T10:49:11.030Z,56.67
2017-09-14T10:51:39.330Z,55.62
2017-09-14T10:54:07.645Z,56.10
2017-09-14T10:56:36.707Z,54.16
2017-09-14T10:59:05.046Z,54.31
2017-09-14T11:01:33.342Z,54.79
2017-09-14T11:04:01.646Z,54.87
2017-09-14T11:06:29.954Z,54.36
2017-09-14T11:08:59.014Z,55.77
2017-09-14T11:14:24.807Z,57.04
2017-09-14T11:16:53.104Z,56.55
2017-09-14T11:19:21.444Z,57.51
2017-09-14T11:21:50.497Z,56.83
2017-09-14T11:24:18.784Z,56.05
2017-09-14T11:26:47.084Z,56.57
2017-09-14T11:29:16.141Z,56.30
2017-09-14T11:31:44.460Z,56.83
2017-09-14T11:34:12.761Z,56.17
2017-09-14T11:36:41.061Z,55.75
2017-09-14T11:39:09.374Z,57.41
2017-09-14T11:41:37.717Z,56.91
2017-09-14T11:44:06.850Z,57.09
2017-09-14T11:46:35.137Z,56.80
2017-09-14T11:49:04.189Z,56.30
2017-09-14T11:51:32.495Z,57.19
2017-09-14T11:54:01.561Z,57.49
2017-09-14T11:56:29.882Z,57.55
2017-09-14T11:58:58.941Z,57.85
2017-09-14T12:01:27.229Z,58.14
2017-09-14T12:03:55.532Z,58.44
2017-09-14T12:06:24.605Z,56.70
2017-09-14T12:08:52.938Z,57.61
2017-09-14T12:11:21.231Z,57.46
2017-09-14T12:13:49.523Z,57.12
2017-09-14T12:16:17.824Z,57.49
2017-09-14T12:18:46.882Z,57.53
2017-09-14T12:21:15.176Z,57.85
2017-09-14T12:23:43.464Z,57.63
2017-09-14T12:26:11.793Z,57.04
2017-09-14T12:28:40.088Z,56.19
2017-09-14T12:31:08.377Z,56.16
2017-09-14T12:33:36.745Z,56.11
2017-09-14T12:36:05.038Z,53.11
2017-09-14T12:38:33.373Z,51.15
2017-09-14T12:41:01.665Z,51.72
2017-09-14T12:43:30.049Z,52.24
2017-09-14T12:45:58.341Z,53.69
2017-09-14T12:48:26.633Z,55.78
2017-09-14T12:50:54.937Z,55.78
2017-09-14T12:53:23.995Z,57.30
2017-09-14T12:55:52.314Z,60.31
2017-09-14T12:58:20.607Z,58.91
2017-09-14T13:00:48.901Z,59.33
2017-09-14T13:03:17.943Z,56.63
2017-09-14T13:05:46.997Z,55.05
2017-09-14T13:08:15.320Z,57.14
2017-09-14T13:10:44.473Z,57.39
2017-09-14T13:13:12.761Z,58.41
2017-09-14T13:15:41.134Z,61.26
2017-09-14T13:18:09.437Z,58.84
2017-09-14T13:20:38.532Z,67.96
2017-09-14T13:23:06.829Z,76.04
2017-09-14T13:25:35.885Z,77.76
2017-09-14T13:28:04.185Z,78.21
2017-09-14T13:30:33.250Z,75.55
2017-09-14T13:33:01.582Z,74.87
2017-09-14T13:35:29.889Z,76.31
2017-09-14T13:37:58.177Z,74.82
2017-09-14T13:40:26.482Z,75.48
2017-09-14T13:42:55.549Z,78.24
2017-09-14T13:45:23.872Z,77.42
2017-09-14T13:47:52.926Z,77.27
2017-09-14T13:50:21.305Z,78.76
2017-09-14T13:52:49.606Z,76.97
2017-09-14T13:55:17.897Z,76.04
2017-09-14T13:57:46.995Z,72.57
2017-09-14T14:00:16.052Z,70.39
2017-09-14T14:02:44.349Z,67.68
2017-09-14T14:05:12.649Z,69.22
2017-09-14T14:07:41.701Z,69.17
2017-09-14T14:10:10.788Z,68.37
2017-09-14T14:12:39.076Z,67.76
2017-09-14T14:15:07.360Z,69.68
2017-09-14T14:17:35.667Z,67.39
2017-09-14T14:20:04.726Z,67.87
2017-09-14T14:22:33.066Z,67.58
2017-09-14T14:25:01.389Z,66.86
2017-09-14T14:27:29.685Z,67.26
2017-09-14T14:29:58.762Z,67.96
2017-09-14T14:32:27.070Z,67.49
2017-09-14T14:34:55.388Z,66.49
2017-09-14T14:37:23.689Z,64.80
2017-09-14T14:39:51.985Z,64.65
2017-09-14T14:42:21.063Z,65.30
2017-09-14T14:44:49.358Z,66.92
2017-09-14T14:47:18.449Z,66.48
2017-09-14T14:49:47.505Z,65.66
2017-09-14T14:52:15.807Z,65.59
2017-09-14T14:54:44.110Z,62.57
2017-09-14T14:57:13.177Z,61.58
2017-09-14T14:59:41.899Z,60.73
2017-09-14T15:02:10.189Z,61.87
2017-09-14T15:04:38.490Z,61.16
2017-09-14T15:07:06.797Z,61.93
2017-09-14T15:09:35.094Z,62.67
2017-09-14T15:12:04.199Z,60.20
2017-09-14T15:14:32.490Z,60.02
2017-09-14T15:17:00.790Z,58.83
2017-09-14T15:19:29.077Z,56.57
2017-09-14T15:21:57.382Z,57.56
2017-09-14T15:24:25.680Z,56.88
2017-09-14T15:26:54.794Z,56.97
2017-09-14T15:29:23.821Z,57.63
2017-09-14T15:31:52.145Z,58.00
2017-09-14T15:34:21.206Z,59.50
2017-09-14T15:36:49.498Z,58.28
2017-09-14T15:39:23.462Z,59.49
2017-09-14T15:41:51.779Z,60.32
2017-09-14T15:44:25.373Z,59.10
2017-09-14T15:46:53.675Z,59.38
2017-09-14T15:49:28.099Z,57.68
2017-09-14T15:51:57.162Z,59.23
2017-09-14T15:54:25.471Z,58.25
2017-09-14T15:56:53.785Z,58.40
2017-09-14T15:59:22.086Z,58.49
2017-09-14T16:01:50.381Z,58.45
2017-09-14T16:04:18.689Z,58.83
2017-09-14T16:06:46.986Z,58.47
2017-09-14T16:09:15.314Z,59.30
2017-09-14T16:11:43.607Z,59.50
2017-09-14T16:14:12.677Z,59.36
2017-09-14T16:16:40.992Z,59.80
2017-09-14T16:19:10.057Z,59.55
2017-09-14T16:21:38.382Z,60.00
2017-09-14T16:24:06.678Z,60.23
2017-09-14T16:26:34.984Z,59.27
2017-09-14T16:29:03.282Z,57.79
2017-09-14T16:31:32.340Z,58.69
2017-09-14T16:34:00.651Z,59.75
2017-09-14T16:36:29.712Z,60.35
2017-09-14T16:38:58.025Z,60.02
2017-09-14T16:41:27.092Z,61.12
2017-09-14T16:43:55.430Z,60.51
2017-09-14T16:49:20.546Z,61.14
2017-09-14T16:51:49.254Z,61.64
2017-09-14T16:54:17.584Z,62.02
2017-09-14T16:56:46.642Z,61.53
2017-09-14T16:59:14.952Z,61.53
2017-09-14T17:01:44.033Z,62.57
2017-09-14T17:04:12.337Z,63.41
2017-09-14T17:06:41.418Z,64.04
2017-09-14T17:09:10.486Z,64.00
2017-09-14T17:11:38.790Z,64.83
2017-09-14T17:14:07.090Z,66.00
2017-09-14T17:16:35.387Z,66.53
2017-09-14T17:19:03.693Z,67.93
2017-09-14T17:21:31.995Z,68.92
2017-09-14T17:24:00.302Z,69.56
2017-09-14T17:26:28.598Z,70.06
2017-09-14T17:28:56.910Z,69.82
2017-09-14T17:31:25.209Z,68.96
2017-09-14T17:33:54.280Z,68.62
2017-09-14T17:36:22.581Z,67.81
2017-09-14T17:38:51.687Z,67.93
2017-09-14T17:41:20.761Z,68.03
2017-09-14T17:43:49.065Z,67.83
2017-09-14T17:46:17.422Z,67.58
2017-09-14T17:48:45.717Z,67.50
2017-09-14T17:51:14.796Z,67.85
2017-09-14T17:53:43.883Z,67.64
2017-09-14T17:56:12.189Z,67.75
2017-09-14T17:58:40.486Z,67.89
2017-09-14T18:01:08.815Z,67.67
2017-09-14T18:03:37.121Z,67.60
2017-09-14T18:06:05.418Z,67.50
2017-09-14T18:08:33.732Z,67.86
2017-09-14T18:11:02.038Z,68.39
2017-09-14T18:13:31.106Z,68.81
2017-09-14T18:15:59.407Z,69.04
2017-09-14T18:18:28.492Z,68.41
2017-09-14T18:20:56.793Z,68.12
2017-09-14T18:23:25.090Z,67.61
2017-09-14T18:25:53.402Z,66.69
2017-09-14T18:28:21.701Z,66.35
2017-09-14T18:30:50.003Z,65.76
2017-09-14T18:33:18.356Z,65.61
2017-09-14T18:38:15.021Z,65.50
2017-09-14T18:40:44.165Z,65.46
2017-09-14T18:43:13.237Z,65.68
2017-09-14T18:45:41.545Z,66.06
2017-09-14T18:48:09.854Z,65.79
2017-09-14T18:50:38.157Z,66.11
2017-09-14T18:53:07.289Z,66.00
2017-09-14T18:55:35.599Z,66.36
2017-09-14T18:58:03.926Z,66.81
2017-09-14T19:00:32.223Z,67.37
2017-09-14T19:03:00.572Z,67.42
2017-09-14T19:05:28.905Z,67.85
2017-09-14T19:07:57.235Z,68.37
2017-09-14T19:10:25.559Z,69.46
2017-09-14T19:12:53.859Z,69.31
2017-09-14T19:15:22.967Z,70.60
2017-09-14T19:17:52.076Z,70.58
2017-09-14T19:20:20.395Z,71.17
2017-09-14T19:22:48.698Z,72.23
2017-09-14T19:25:16.998Z,73.74
2017-09-14T19:27:45.302Z,74.08
2017-09-14T19:30:13.600Z,74.31
2017-09-14T19:32:41.902Z,74.22
2017-09-14T19:35:10.210Z,75.01
2017-09-14T19:37:38.542Z,75.92
2017-09-14T19:40:06.848Z,78.08
2017-09-14T19:42:35.912Z,77.91
2017-09-14T19:45:04.222Z,79.02
2017-09-14T19:47:33.283Z,79.22
2017-09-14T19:50:01.589Z,79.47
2017-09-14T19:52:30.654Z,80.04
2017-09-14T19:54:58.966Z,79.92
2017-09-14T19:57:28.075Z,81.07
2017-09-14T19:59:56.426Z,81.69
2017-09-14T20:02:24.726Z,83.44
2017-09-14T20:04:53.803Z,84.18
2017-09-14T20:07:22.900Z,84.84
2017-09-14T20:09:51.970Z,86.18
2017-09-14T20:12:20.278Z,86.70
2017-09-14T20:14:49.346Z,86.66
2017-09-14T20:17:17.654Z,86.91
2017-09-14T20:19:46.719Z,86.96
2017-09-14T20:22:15.035Z,86.43
2017-09-14T20:24:43.330Z,86.64
2017-09-14T20:27:11.637Z,87.14
2017-09-14T20:29:39.938Z,86.40
2017-09-14T20:32:08.262Z,87.40
2017-09-14T20:34:36.566Z,87.15
2017-09-14T20:37:04.869Z,87.84
2017-09-14T20:39:33.189Z,88.53
2017-09-14T20:42:01.494Z,88.42
2017-09-14T20:44:29.815Z,89.27
2017-09-14T20:46:58.115Z,88.24
2017-09-14T20:49:26.528Z,88.32
2017-09-14T20:51:54.830Z,88.66
2017-09-14T20:54:23.188Z,88.32
2017-09-14T20:56:51.489Z,88.70
2017-09-14T20:59:19.795Z,89.23
2017-09-14T21:01:48.117Z,89.13
2017-09-14T21:04:16.423Z,89.31
2017-09-14T21:06:44.763Z,89.88
2017-09-14T21:09:13.070Z,89.79
2017-09-14T21:11:41.366Z,90.12
2017-09-14T21:14:09.677Z,90.04
2017-09-14T21:16:38.746Z,90.46
2017-09-14T21:19:07.075Z,90.71
2017-09-14T21:21:35.370Z,90.78
2017-09-14T21:24:03.673Z,90.25
2017-09-14T21:26:31.971Z,90.67
2017-09-14T21:29:00.278Z,90.38
2017-09-14T21:31:28.576Z,90.82
2017-09-14T21:33:56.874Z,90.37
2017-09-14T21:36:25.181Z,90.85
2017-09-14T21:38:53.485Z,90.49
2017-09-14T21:41:21.793Z,90.46
2017-09-14T21:43:50.085Z,90.44
2017-09-14T21:46:18.388Z,90.59
2017-09-14T21:48:46.693Z,90.48
2017-09-14T21:51:15.009Z,90.86
2017-09-14T21:53:43.302Z,90.81
2017-09-14T21:56:11.640Z,90.05
2017-09-14T21:58:39.932Z,89.79
2017-09-14T22:01:08.226Z,89.99
2017-09-14T22:03:36.551Z,89.75
2017-09-14T22:06:05.609Z,90.28
2017-09-14T22:08:33.913Z,90.40
2017-09-14T22:11:02.965Z,90.02
2017-09-14T22:13:31.292Z,90.12
2017-09-14T22:16:00.354Z,90.11
2017-09-14T22:18:28.652Z,89.96
2017-09-14T22:20:57.721Z,90.12
2017-09-14T22:23:26.022Z,90.00
2017-09-14T22:25:55.102Z,90.66
2017-09-14T22:28:23.393Z,90.96
2017-09-14T22:30:51.690Z,90.59
2017-09-14T22:33:20.002Z,90.64
2017-09-14T22:35:48.330Z,90.55
2017-09-14T22:38:17.398Z,90.80
2017-09-14T22:40:45.690Z,90.29
2017-09-14T22:43:13.989Z,90.66
2017-09-14T22:45:43.050Z,90.14
2017-09-14T22:48:11.351Z,90.10
2017-09-14T22:50:39.650Z,89.66
2017-09-14T22:53:07.977Z,89.55
2017-09-14T22:55:36.285Z,89.17
2017-09-14T22:58:05.371Z,89.57
2017-09-14T23:00:33.697Z,88.81
2017-09-14T23:03:01.997Z,89.43
2017-09-14T23:05:30.312Z,89.60
2017-09-14T23:07:59.382Z,89.36
2017-09-14T23:10:27.706Z,88.66
2017-09-14T23:12:56.009Z,88.98
2017-09-14T23:15:24.373Z,89.17
2017-09-14T23:17:52.683Z,88.84
2017-09-14T23:20:21.022Z,88.77
2017-09-14T23:22:49.317Z,89.18
2017-09-14T23:25:17.614Z,89.01
2017-09-14T23:27:45.928Z,88.25
2017-09-14T23:30:14.997Z,88.54
2017-09-14T23:32:43.311Z,88.48
2017-09-14T23:35:11.613Z,88.35
2017-09-14T23:37:39.934Z,88.22
2017-09-14T23:40:08.230Z,88.12
2017-09-14T23:42:37.317Z,88.20
2017-09-14T23:45:06.386Z,88.24
2017-09-14T23:47:34.746Z,88.01
2017-09-14T23:50:03.077Z,88.35
2017-09-14T23:52:32.147Z,88.05
2017-09-14T23:55:00.478Z,87.95
2017-09-14T23:57:28.791Z,87.86
2017-09-14T23:59:57.118Z,88.14
